Angoon, Alaska
Current Conditions -  °F | °C
As of 10:56 PM on Friday 19 Dec 2014 (Local Time) from PAGN Reporting Station
Light Rain Light Rain  
Wind Chill: 28°   Ceiling: 8000
Heat Index: 36°   Visibility: 10mi
Dew Point: 35°   Wind: 10mph
Humidity: 96%   Direction: 90°E
Pressure: 29.17"   Gusts: NA
Location:  57.5°N, 134.59°W
Report Text: PAGN 200756Z AUTO 09009KT 060V120 10SM -RA FEW034 SCT046 BKN080 02/02 A2917 RMK AO2 TSNO T00220016 BKN V SCT P0000 SLP879 $
Loading
Personal Weather Stations






























Interactive Weather Map New forecast layout! Learn more

10-Day Weather Forecast

Advertisements
Track Severe Weather on mobile